sensor_id;sensor_type;location;lat;lon;timestamp;temperature;humidity
4556;DHT22;2290;48.674;9.018;2024-02-21T00:00:57;7.30;99.90
4556;DHT22;2290;48.674;9.018;2024-02-21T00:03:23;7.30;99.90
4556;DHT22;2290;48.674;9.018;2024-02-21T00:05:49;7.30;99.90
4556;DHT22;2290;48.674;9.018;2024-02-21T00:08:15;7.30;99.90
4556;DHT22;2290;48.674;9.018;2024-02-21T00:10:42;7.30;99.90
4556;DHT22;2290;48.674;9.018;2024-02-21T00:13:07;7.30;99.90
4556;DHT22;2290;48.674;9.018;2024-02-21T00:15:33;7.30;99.90
4556;DHT22;2290;48.674;9.018;2024-02-21T00:17:59;7.30;99.90
4556;DHT22;2290;48.674;9.018;2024-02-21T00:20:26;7.30;99.90
4556;DHT22;2290;48.674;9.018;2024-02-21T00:22:51;7.30;99.90
4556;DHT22;2290;48.674;9.018;2024-02-21T00:25:18;7.30;99.90
4556;DHT22;2290;48.674;9.018;2024-02-21T00:27:43;7.30;99.90
4556;DHT22;2290;48.674;9.018;2024-02-21T00:30:10;7.40;99.90
4556;DHT22;2290;48.674;9.018;2024-02-21T00:32:35;7.30;99.90
4556;DHT22;2290;48.674;9.018;2024-02-21T00:35:01;7.30;99.90
4556;DHT22;2290;48.674;9.018;2024-02-21T00:37:27;7.30;99.90
4556;DHT22;2290;48.674;9.018;2024-02-21T00:39:54;7.30;99.90
4556;DHT22;2290;48.674;9.018;2024-02-21T00:42:19;7.30;99.90
4556;DHT22;2290;48.674;9.018;2024-02-21T00:44:45;7.30;99.90
4556;DHT22;2290;48.674;9.018;2024-02-21T00:47:12;7.20;99.90
4556;DHT22;2290;48.674;9.018;2024-02-21T00:49:38;7.30;99.90
4556;DHT22;2290;48.674;9.018;2024-02-21T00:52:03;7.20;99.90
4556;DHT22;2290;48.674;9.018;2024-02-21T00:54:29;7.20;99.90
4556;DHT22;2290;48.674;9.018;2024-02-21T00:56:54;7.20;99.90
4556;DHT22;2290;48.674;9.018;2024-02-21T00:59:20;7.20;99.90
4556;DHT22;2290;48.674;9.018;2024-02-21T01:01:46;7.20;99.90
4556;DHT22;2290;48.674;9.018;2024-02-21T01:04:11;7.10;99.90
4556;DHT22;2290;48.674;9.018;2024-02-21T01:06:37;7.10;99.90
4556;DHT22;2290;48.674;9.018;2024-02-21T01:09:02;7.00;99.90
4556;DHT22;2290;48.674;9.018;2024-02-21T01:11:29;7.00;99.90
4556;DHT22;2290;48.674;9.018;2024-02-21T01:13:55;7.00;99.90
4556;DHT22;2290;48.674;9.018;2024-02-21T01:16:21;6.90;99.90
4556;DHT22;2290;48.674;9.018;2024-02-21T01:18:46;7.00;99.90
4556;DHT22;2290;48.674;9.018;2024-02-21T01:21:12;6.90;99.90
4556;DHT22;2290;48.674;9.018;2024-02-21T01:23:38;6.80;99.90
4556;DHT22;2290;48.674;9.018;2024-02-21T01:26:04;6.90;99.90
4556;DHT22;2290;48.674;9.018;2024-02-21T01:28:31;6.80;99.90
4556;DHT22;2290;48.674;9.018;2024-02-21T01:30:58;6.80;99.90
4556;DHT22;2290;48.674;9.018;2024-02-21T01:33:24;6.70;99.90
4556;DHT22;2290;48.674;9.018;2024-02-21T01:35:50;6.70;99.90
4556;DHT22;2290;48.674;9.018;2024-02-21T01:38:16;6.70;99.90
4556;DHT22;2290;48.674;9.018;2024-02-21T01:40:41;6.70;99.90
4556;DHT22;2290;48.674;9.018;2024-02-21T01:43:18;6.70;99.90
4556;DHT22;2290;48.674;9.018;2024-02-21T01:45:49;6.70;99.90
4556;DHT22;2290;48.674;9.018;2024-02-21T01:48:17;6.70;99.90
4556;DHT22;2290;48.674;9.018;2024-02-21T01:50:51;6.60;99.90
4556;DHT22;2290;48.674;9.018;2024-02-21T01:53:20;6.60;99.90
4556;DHT22;2290;48.674;9.018;2024-02-21T01:55:46;6.60;99.90
4556;DHT22;2290;48.674;9.018;2024-02-21T01:58:16;6.50;99.90
4556;DHT22;2290;48.674;9.018;2024-02-21T02:00:46;6.40;99.90
4556;DHT22;2290;48.674;9.018;2024-02-21T02:03:13;6.30;99.90
4556;DHT22;2290;48.674;9.018;2024-02-21T02:05:46;6.30;99.90
4556;DHT22;2290;48.674;9.018;2024-02-21T02:08:18;6.30;99.90
4556;DHT22;2290;48.674;9.018;2024-02-21T02:10:44;6.40;99.90
4556;DHT22;2290;48.674;9.018;2024-02-21T02:13:11;6.40;99.90
4556;DHT22;2290;48.674;9.018;2024-02-21T02:15:43;6.40;99.90
4556;DHT22;2290;48.674;9.018;2024-02-21T02:18:11;6.50;99.90
4556;DHT22;2290;48.674;9.018;2024-02-21T02:20:38;6.50;99.90
4556;DHT22;2290;48.674;9.018;2024-02-21T02:23:07;6.50;99.90
4556;DHT22;2290;48.674;9.018;2024-02-21T02:25:34;6.50;99.90
4556;DHT22;2290;48.674;9.018;2024-02-21T02:28:00;6.60;99.90
4556;DHT22;2290;48.674;9.018;2024-02-21T02:30:25;6.60;99.90
4556;DHT22;2290;48.674;9.018;2024-02-21T02:32:51;6.60;99.90
4556;DHT22;2290;48.674;9.018;2024-02-21T02:35:16;6.60;99.90
4556;DHT22;2290;48.674;9.018;2024-02-21T02:37:48;6.60;99.90
4556;DHT22;2290;48.674;9.018;2024-02-21T02:40:15;6.60;99.90
4556;DHT22;2290;48.674;9.018;2024-02-21T02:42:40;6.60;99.90
4556;DHT22;2290;48.674;9.018;2024-02-21T02:45:07;6.50;99.90
4556;DHT22;2290;48.674;9.018;2024-02-21T02:47:33;6.50;99.90
4556;DHT22;2290;48.674;9.018;2024-02-21T02:50:00;6.60;99.90
4556;DHT22;2290;48.674;9.018;2024-02-21T02:52:25;6.70;99.90
4556;DHT22;2290;48.674;9.018;2024-02-21T02:54:52;6.70;99.90
4556;DHT22;2290;48.674;9.018;2024-02-21T02:57:22;6.70;99.90
4556;DHT22;2290;48.674;9.018;2024-02-21T02:59:51;6.70;99.90
4556;DHT22;2290;48.674;9.018;2024-02-21T03:02:18;6.60;99.90
4556;DHT22;2290;48.674;9.018;2024-02-21T03:04:44;6.60;99.90
4556;DHT22;2290;48.674;9.018;2024-02-21T03:07:11;6.60;99.90
4556;DHT22;2290;48.674;9.018;2024-02-21T03:09:40;6.70;99.90
4556;DHT22;2290;48.674;9.018;2024-02-21T03:12:08;6.70;99.90
4556;DHT22;2290;48.674;9.018;2024-02-21T03:14:34;6.60;99.90
4556;DHT22;2290;48.674;9.018;2024-02-21T03:17:02;6.70;99.90
4556;DHT22;2290;48.674;9.018;2024-02-21T03:19:28;6.70;99.90
4556;DHT22;2290;48.674;9.018;2024-02-21T03:21:55;6.70;99.90
4556;DHT22;2290;48.674;9.018;2024-02-21T03:24:21;6.70;99.90
4556;DHT22;2290;48.674;9.018;2024-02-21T03:26:48;6.80;99.90
4556;DHT22;2290;48.674;9.018;2024-02-21T03:29:15;6.80;99.90
4556;DHT22;2290;48.674;9.018;2024-02-21T03:31:43;6.80;99.90
4556;DHT22;2290;48.674;9.018;2024-02-21T03:34:10;6.90;99.90
4556;DHT22;2290;48.674;9.018;2024-02-21T03:36:36;6.80;99.90
4556;DHT22;2290;48.674;9.018;2024-02-21T03:39:01;6.80;99.90
4556;DHT22;2290;48.674;9.018;2024-02-21T03:41:27;6.70;99.90
4556;DHT22;2290;48.674;9.018;2024-02-21T03:43:54;6.60;99.90
4556;DHT22;2290;48.674;9.018;2024-02-21T03:46:21;6.60;99.90
4556;DHT22;2290;48.674;9.018;2024-02-21T03:48:47;6.60;99.90
4556;DHT22;2290;48.674;9.018;2024-02-21T03:51:13;6.50;99.90
4556;DHT22;2290;48.674;9.018;2024-02-21T03:53:41;6.60;99.90
4556;DHT22;2290;48.674;9.018;2024-02-21T03:56:07;6.60;99.90
4556;DHT22;2290;48.674;9.018;2024-02-21T03:58:33;6.60;99.90
4556;DHT22;2290;48.674;9.018;2024-02-21T04:01:02;6.60;99.90
4556;DHT22;2290;48.674;9.018;2024-02-21T04:03:30;6.60;99.90
4556;DHT22;2290;48.674;9.018;2024-02-21T04:05:56;6.60;99.90
4556;DHT22;2290;48.674;9.018;2024-02-21T04:08:22;6.50;99.90
4556;DHT22;2290;48.674;9.018;2024-02-21T04:10:49;6.50;99.90
4556;DHT22;2290;48.674;9.018;2024-02-21T04:13:15;6.50;99.90
4556;DHT22;2290;48.674;9.018;2024-02-21T04:15:41;6.40;99.90
4556;DHT22;2290;48.674;9.018;2024-02-21T04:18:08;6.40;99.90
4556;DHT22;2290;48.674;9.018;2024-02-21T04:20:34;6.40;99.90
4556;DHT22;2290;48.674;9.018;2024-02-21T04:23:01;6.40;99.90
4556;DHT22;2290;48.674;9.018;2024-02-21T04:25:27;6.30;99.90
4556;DHT22;2290;48.674;9.018;2024-02-21T04:27:54;6.40;99.90
4556;DHT22;2290;48.674;9.018;2024-02-21T04:30:22;6.30;99.90
4556;DHT22;2290;48.674;9.018;2024-02-21T04:32:48;6.30;99.90
4556;DHT22;2290;48.674;9.018;2024-02-21T04:35:13;6.30;99.90
4556;DHT22;2290;48.674;9.018;2024-02-21T04:37:39;6.30;99.90
4556;DHT22;2290;48.674;9.018;2024-02-21T04:40:06;6.40;99.90
4556;DHT22;2290;48.674;9.018;2024-02-21T04:42:32;6.30;99.90
4556;DHT22;2290;48.674;9.018;2024-02-21T04:44:59;6.30;99.90
4556;DHT22;2290;48.674;9.018;2024-02-21T04:47:24;6.30;99.90
4556;DHT22;2290;48.674;9.018;2024-02-21T04:49:50;6.30;99.90
4556;DHT22;2290;48.674;9.018;2024-02-21T04:52:19;6.30;99.90
4556;DHT22;2290;48.674;9.018;2024-02-21T04:54:44;6.30;99.90
4556;DHT22;2290;48.674;9.018;2024-02-21T04:57:11;6.20;99.90
4556;DHT22;2290;48.674;9.018;2024-02-21T04:59:38;6.30;99.90
4556;DHT22;2290;48.674;9.018;2024-02-21T05:02:05;6.30;99.90
4556;DHT22;2290;48.674;9.018;2024-02-21T05:04:30;6.20;99.90
4556;DHT22;2290;48.674;9.018;2024-02-21T05:06:56;6.20;99.90
4556;DHT22;2290;48.674;9.018;2024-02-21T05:09:21;6.20;99.90
4556;DHT22;2290;48.674;9.018;2024-02-21T05:11:47;6.30;99.90
4556;DHT22;2290;48.674;9.018;2024-02-21T05:14:13;6.30;99.90
4556;DHT22;2290;48.674;9.018;2024-02-21T05:16:39;6.30;99.90
4556;DHT22;2290;48.674;9.018;2024-02-21T05:19:06;6.30;99.90
4556;DHT22;2290;48.674;9.018;2024-02-21T05:21:32;6.30;99.90
4556;DHT22;2290;48.674;9.018;2024-02-21T05:23:58;6.30;99.90
4556;DHT22;2290;48.674;9.018;2024-02-21T05:26:27;6.20;99.90
4556;DHT22;2290;48.674;9.018;2024-02-21T05:28:54;6.20;99.90
4556;DHT22;2290;48.674;9.018;2024-02-21T05:31:25;6.20;99.90
4556;DHT22;2290;48.674;9.018;2024-02-21T05:33:51;6.30;99.90
4556;DHT22;2290;48.674;9.018;2024-02-21T05:36:17;6.20;99.90
4556;DHT22;2290;48.674;9.018;2024-02-21T05:38:42;6.30;99.90
4556;DHT22;2290;48.674;9.018;2024-02-21T05:41:08;6.20;99.90
4556;DHT22;2290;48.674;9.018;2024-02-21T05:43:34;6.30;99.90
4556;DHT22;2290;48.674;9.018;2024-02-21T05:46:00;6.30;99.90
4556;DHT22;2290;48.674;9.018;2024-02-21T05:48:25;6.30;99.90
4556;DHT22;2290;48.674;9.018;2024-02-21T05:50:51;6.20;99.90
4556;DHT22;2290;48.674;9.018;2024-02-21T05:53:17;6.20;99.90
4556;DHT22;2290;48.674;9.018;2024-02-21T05:55:42;6.20;99.90
4556;DHT22;2290;48.674;9.018;2024-02-21T05:58:08;6.10;99.90
4556;DHT22;2290;48.674;9.018;2024-02-21T06:00:39;6.00;99.90
4556;DHT22;2290;48.674;9.018;2024-02-21T06:03:04;5.90;99.90
4556;DHT22;2290;48.674;9.018;2024-02-21T06:05:30;5.80;99.90
4556;DHT22;2290;48.674;9.018;2024-02-21T06:07:58;5.90;99.90
4556;DHT22;2290;48.674;9.018;2024-02-21T06:10:24;5.90;99.90
4556;DHT22;2290;48.674;9.018;2024-02-21T06:12:50;5.90;99.90
4556;DHT22;2290;48.674;9.018;2024-02-21T06:15:15;5.90;99.90
4556;DHT22;2290;48.674;9.018;2024-02-21T06:17:41;5.90;99.90
4556;DHT22;2290;48.674;9.018;2024-02-21T06:20:08;5.90;99.90
4556;DHT22;2290;48.674;9.018;2024-02-21T06:22:35;5.90;99.90
4556;DHT22;2290;48.674;9.018;2024-02-21T06:25:00;5.90;99.90
4556;DHT22;2290;48.674;9.018;2024-02-21T06:27:26;5.90;99.90
4556;DHT22;2290;48.674;9.018;2024-02-21T06:29:51;6.00;99.90
4556;DHT22;2290;48.674;9.018;2024-02-21T06:32:17;6.00;99.90
4556;DHT22;2290;48.674;9.018;2024-02-21T06:34:42;6.00;99.90
4556;DHT22;2290;48.674;9.018;2024-02-21T06:37:09;6.00;99.90
4556;DHT22;2290;48.674;9.018;2024-02-21T06:39:34;6.00;99.90
4556;DHT22;2290;48.674;9.018;2024-02-21T06:42:03;6.00;99.90
4556;DHT22;2290;48.674;9.018;2024-02-21T06:44:28;6.10;99.90
4556;DHT22;2290;48.674;9.018;2024-02-21T06:46:55;6.10;99.90
4556;DHT22;2290;48.674;9.018;2024-02-21T06:49:21;6.20;99.90
4556;DHT22;2290;48.674;9.018;2024-02-21T06:51:46;6.20;99.90
4556;DHT22;2290;48.674;9.018;2024-02-21T06:54:12;6.20;99.90
4556;DHT22;2290;48.674;9.018;2024-02-21T06:56:37;6.30;99.90
4556;DHT22;2290;48.674;9.018;2024-02-21T06:59:03;6.30;99.90
4556;DHT22;2290;48.674;9.018;2024-02-21T07:01:29;6.40;99.90
4556;DHT22;2290;48.674;9.018;2024-02-21T07:03:55;6.40;99.90
4556;DHT22;2290;48.674;9.018;2024-02-21T07:06:21;6.50;99.90
4556;DHT22;2290;48.674;9.018;2024-02-21T07:08:47;6.50;99.90
4556;DHT22;2290;48.674;9.018;2024-02-21T07:11:12;6.50;99.90
4556;DHT22;2290;48.674;9.018;2024-02-21T07:13:38;6.60;99.90
4556;DHT22;2290;48.674;9.018;2024-02-21T07:16:05;6.70;99.90
4556;DHT22;2290;48.674;9.018;2024-02-21T07:18:31;6.60;99.90
4556;DHT22;2290;48.674;9.018;2024-02-21T07:20:56;6.70;99.90
4556;DHT22;2290;48.674;9.018;2024-02-21T07:23:24;6.70;99.90
4556;DHT22;2290;48.674;9.018;2024-02-21T07:25:50;6.70;99.90
4556;DHT22;2290;48.674;9.018;2024-02-21T07:28:15;6.70;99.90
4556;DHT22;2290;48.674;9.018;2024-02-21T07:30:42;6.70;99.90
4556;DHT22;2290;48.674;9.018;2024-02-21T07:33:08;6.80;99.90
4556;DHT22;2290;48.674;9.018;2024-02-21T07:35:33;6.80;99.90
4556;DHT22;2290;48.674;9.018;2024-02-21T07:37:59;6.80;99.90
4556;DHT22;2290;48.674;9.018;2024-02-21T07:40:24;6.80;99.90
4556;DHT22;2290;48.674;9.018;2024-02-21T07:42:51;6.80;99.90
4556;DHT22;2290;48.674;9.018;2024-02-21T07:45:18;6.90;99.90
4556;DHT22;2290;48.674;9.018;2024-02-21T07:47:47;7.00;99.90
4556;DHT22;2290;48.674;9.018;2024-02-21T07:50:12;6.90;99.90
4556;DHT22;2290;48.674;9.018;2024-02-21T07:52:39;7.00;99.90
4556;DHT22;2290;48.674;9.018;2024-02-21T07:55:06;7.00;99.90
4556;DHT22;2290;48.674;9.018;2024-02-21T07:57:32;7.00;99.90
4556;DHT22;2290;48.674;9.018;2024-02-21T07:59:58;7.10;99.90
4556;DHT22;2290;48.674;9.018;2024-02-21T08:02:25;7.20;99.90
4556;DHT22;2290;48.674;9.018;2024-02-21T08:04:51;7.20;99.90
4556;DHT22;2290;48.674;9.018;2024-02-21T08:07:16;7.20;99.90
4556;DHT22;2290;48.674;9.018;2024-02-21T08:09:42;7.30;99.90
4556;DHT22;2290;48.674;9.018;2024-02-21T08:12:07;7.40;99.90
4556;DHT22;2290;48.674;9.018;2024-02-21T08:14:33;7.50;99.90
4556;DHT22;2290;48.674;9.018;2024-02-21T08:16:59;7.50;99.90
4556;DHT22;2290;48.674;9.018;2024-02-21T08:19:25;7.50;99.90
4556;DHT22;2290;48.674;9.018;2024-02-21T08:21:51;7.60;99.90
4556;DHT22;2290;48.674;9.018;2024-02-21T08:24:17;7.70;99.90
4556;DHT22;2290;48.674;9.018;2024-02-21T08:26:43;7.60;99.90
4556;DHT22;2290;48.674;9.018;2024-02-21T08:29:11;7.70;99.90
4556;DHT22;2290;48.674;9.018;2024-02-21T08:31:37;7.70;99.90
4556;DHT22;2290;48.674;9.018;2024-02-21T08:34:03;7.80;99.90
4556;DHT22;2290;48.674;9.018;2024-02-21T08:36:33;7.80;99.90
4556;DHT22;2290;48.674;9.018;2024-02-21T08:38:59;7.90;99.90
4556;DHT22;2290;48.674;9.018;2024-02-21T08:41:25;8.00;99.90
4556;DHT22;2290;48.674;9.018;2024-02-21T08:43:52;7.90;99.90
4556;DHT22;2290;48.674;9.018;2024-02-21T08:46:22;7.80;99.90
4556;DHT22;2290;48.674;9.018;2024-02-21T08:48:52;7.80;99.90
4556;DHT22;2290;48.674;9.018;2024-02-21T08:51:18;8.00;99.90
4556;DHT22;2290;48.674;9.018;2024-02-21T08:53:45;8.00;99.90
4556;DHT22;2290;48.674;9.018;2024-02-21T08:56:10;8.00;99.90
4556;DHT22;2290;48.674;9.018;2024-02-21T08:58:39;8.00;99.90
4556;DHT22;2290;48.674;9.018;2024-02-21T09:01:06;8.10;99.90
4556;DHT22;2290;48.674;9.018;2024-02-21T09:03:37;8.10;99.90
4556;DHT22;2290;48.674;9.018;2024-02-21T09:06:07;8.20;99.90
4556;DHT22;2290;48.674;9.018;2024-02-21T09:08:33;8.20;99.90
4556;DHT22;2290;48.674;9.018;2024-02-21T09:11:02;8.20;99.90
4556;DHT22;2290;48.674;9.018;2024-02-21T09:13:29;8.30;99.90
4556;DHT22;2290;48.674;9.018;2024-02-21T09:15:55;8.40;99.90
4556;DHT22;2290;48.674;9.018;2024-02-21T09:18:21;8.50;99.90
4556;DHT22;2290;48.674;9.018;2024-02-21T09:20:46;8.60;99.90
4556;DHT22;2290;48.674;9.018;2024-02-21T09:23:13;8.70;99.90
4556;DHT22;2290;48.674;9.018;2024-02-21T09:25:38;8.80;99.90
4556;DHT22;2290;48.674;9.018;2024-02-21T09:28:05;8.80;99.90
4556;DHT22;2290;48.674;9.018;2024-02-21T09:30:31;8.70;99.90
4556;DHT22;2290;48.674;9.018;2024-02-21T09:32:59;8.80;99.90
4556;DHT22;2290;48.674;9.018;2024-02-21T09:35:27;8.80;99.90
4556;DHT22;2290;48.674;9.018;2024-02-21T09:37:54;8.90;99.90
4556;DHT22;2290;48.674;9.018;2024-02-21T09:40:27;9.00;99.90
4556;DHT22;2290;48.674;9.018;2024-02-21T09:43:03;9.00;99.90
4556;DHT22;2290;48.674;9.018;2024-02-21T09:45:37;9.10;99.90
4556;DHT22;2290;48.674;9.018;2024-02-21T09:48:28;9.30;99.90
4556;DHT22;2290;48.674;9.018;2024-02-21T09:50:57;9.30;99.90
4556;DHT22;2290;48.674;9.018;2024-02-21T09:53:24;9.30;99.90
4556;DHT22;2290;48.674;9.018;2024-02-21T09:55:52;9.20;99.90
4556;DHT22;2290;48.674;9.018;2024-02-21T09:58:19;9.30;99.90
4556;DHT22;2290;48.674;9.018;2024-02-21T10:00:45;9.40;99.90
4556;DHT22;2290;48.674;9.018;2024-02-21T10:03:10;9.40;99.90
4556;DHT22;2290;48.674;9.018;2024-02-21T10:05:37;9.50;99.90
4556;DHT22;2290;48.674;9.018;2024-02-21T10:08:05;9.70;99.90
4556;DHT22;2290;48.674;9.018;2024-02-21T10:10:43;9.80;99.90
4556;DHT22;2290;48.674;9.018;2024-02-21T10:13:23;10.00;99.90
4556;DHT22;2290;48.674;9.018;2024-02-21T10:16:06;10.10;99.90
4556;DHT22;2290;48.674;9.018;2024-02-21T10:18:32;10.20;99.90
4556;DHT22;2290;48.674;9.018;2024-02-21T10:21:05;10.20;99.90
4556;DHT22;2290;48.674;9.018;2024-02-21T10:23:41;10.10;99.90
4556;DHT22;2290;48.674;9.018;2024-02-21T10:26:09;10.10;99.90
4556;DHT22;2290;48.674;9.018;2024-02-21T10:28:36;10.20;99.90
4556;DHT22;2290;48.674;9.018;2024-02-21T10:31:02;10.30;99.90
4556;DHT22;2290;48.674;9.018;2024-02-21T10:33:28;10.40;99.90
4556;DHT22;2290;48.674;9.018;2024-02-21T10:36:08;10.60;99.90
4556;DHT22;2290;48.674;9.018;2024-02-21T10:38:39;10.60;99.90
4556;DHT22;2290;48.674;9.018;2024-02-21T10:41:05;10.70;99.90
4556;DHT22;2290;48.674;9.018;2024-02-21T10:43:41;10.60;99.90
4556;DHT22;2290;48.674;9.018;2024-02-21T10:46:07;10.60;99.90
4556;DHT22;2290;48.674;9.018;2024-02-21T10:48:42;10.40;99.90
4556;DHT22;2290;48.674;9.018;2024-02-21T10:51:17;10.30;99.90
4556;DHT22;2290;48.674;9.018;2024-02-21T10:56:39;10.60;99.90
4556;DHT22;2290;48.674;9.018;2024-02-21T10:59:08;10.70;99.90
4556;DHT22;2290;48.674;9.018;2024-02-21T11:01:34;10.80;99.90
4556;DHT22;2290;48.674;9.018;2024-02-21T11:04:06;10.90;99.90
4556;DHT22;2290;48.674;9.018;2024-02-21T11:06:35;11.00;99.90
4556;DHT22;2290;48.674;9.018;2024-02-21T11:09:08;11.00;99.90
4556;DHT22;2290;48.674;9.018;2024-02-21T11:11:35;11.10;99.90
4556;DHT22;2290;48.674;9.018;2024-02-21T11:14:10;11.20;99.90
4556;DHT22;2290;48.674;9.018;2024-02-21T11:16:40;11.20;99.90
4556;DHT22;2290;48.674;9.018;2024-02-21T11:19:30;11.20;99.90
4556;DHT22;2290;48.674;9.018;2024-02-21T11:21:57;11.10;99.90
4556;DHT22;2290;48.674;9.018;2024-02-21T11:24:37;11.10;99.90
4556;DHT22;2290;48.674;9.018;2024-02-21T11:27:20;11.20;99.90
4556;DHT22;2290;48.674;9.018;2024-02-21T11:29:57;11.30;99.90
4556;DHT22;2290;48.674;9.018;2024-02-21T11:32:23;11.30;99.90
4556;DHT22;2290;48.674;9.018;2024-02-21T11:35:01;11.30;99.90
4556;DHT22;2290;48.674;9.018;2024-02-21T11:37:29;11.10;99.90
4556;DHT22;2290;48.674;9.018;2024-02-21T11:39:56;11.20;99.90
4556;DHT22;2290;48.674;9.018;2024-02-21T11:42:22;11.20;99.90
4556;DHT22;2290;48.674;9.018;2024-02-21T11:44:48;11.30;99.90
4556;DHT22;2290;48.674;9.018;2024-02-21T11:47:14;11.30;99.90
4556;DHT22;2290;48.674;9.018;2024-02-21T11:49:47;11.30;99.90
4556;DHT22;2290;48.674;9.018;2024-02-21T11:52:22;11.20;99.90
4556;DHT22;2290;48.674;9.018;2024-02-21T11:55:08;11.30;99.90
4556;DHT22;2290;48.674;9.018;2024-02-21T11:57:34;11.30;99.90
4556;DHT22;2290;48.674;9.018;2024-02-21T12:00:12;11.30;99.90
4556;DHT22;2290;48.674;9.018;2024-02-21T12:02:46;11.40;99.90
4556;DHT22;2290;48.674;9.018;2024-02-21T12:05:13;11.50;99.90
4556;DHT22;2290;48.674;9.018;2024-02-21T12:07:41;11.50;99.90
4556;DHT22;2290;48.674;9.018;2024-02-21T12:10:11;11.60;99.90
4556;DHT22;2290;48.674;9.018;2024-02-21T12:12:37;11.60;99.90
4556;DHT22;2290;48.674;9.018;2024-02-21T12:15:03;11.70;99.90
4556;DHT22;2290;48.674;9.018;2024-02-21T12:17:30;11.80;99.90
4556;DHT22;2290;48.674;9.018;2024-02-21T12:19:56;12.00;99.90
4556;DHT22;2290;48.674;9.018;2024-02-21T12:22:22;12.20;99.90
4556;DHT22;2290;48.674;9.018;2024-02-21T12:24:48;12.30;99.90
4556;DHT22;2290;48.674;9.018;2024-02-21T12:27:14;12.40;99.90
4556;DHT22;2290;48.674;9.018;2024-02-21T12:29:39;12.50;99.90
4556;DHT22;2290;48.674;9.018;2024-02-21T12:32:05;12.50;99.90
4556;DHT22;2290;48.674;9.018;2024-02-21T12:34:31;12.40;99.90
4556;DHT22;2290;48.674;9.018;2024-02-21T12:36:59;12.30;99.90
4556;DHT22;2290;48.674;9.018;2024-02-21T12:39:25;12.40;99.90
4556;DHT22;2290;48.674;9.018;2024-02-21T12:41:54;12.40;99.90
4556;DHT22;2290;48.674;9.018;2024-02-21T12:44:21;12.50;99.90
4556;DHT22;2290;48.674;9.018;2024-02-21T12:46:48;12.50;99.90
4556;DHT22;2290;48.674;9.018;2024-02-21T12:49:19;12.40;99.90
4556;DHT22;2290;48.674;9.018;2024-02-21T12:51:45;12.40;99.90
4556;DHT22;2290;48.674;9.018;2024-02-21T12:54:13;12.50;99.90
4556;DHT22;2290;48.674;9.018;2024-02-21T12:56:39;12.50;99.90
4556;DHT22;2290;48.674;9.018;2024-02-21T12:59:06;12.40;99.90
4556;DHT22;2290;48.674;9.018;2024-02-21T13:01:42;12.40;99.90
4556;DHT22;2290;48.674;9.018;2024-02-21T13:04:08;12.30;99.90
4556;DHT22;2290;48.674;9.018;2024-02-21T13:06:34;12.30;99.90
4556;DHT22;2290;48.674;9.018;2024-02-21T13:09:00;12.30;99.90
4556;DHT22;2290;48.674;9.018;2024-02-21T13:11:29;12.20;99.90
4556;DHT22;2290;48.674;9.018;2024-02-21T13:13:56;12.10;99.90
4556;DHT22;2290;48.674;9.018;2024-02-21T13:16:22;12.20;99.90
4556;DHT22;2290;48.674;9.018;2024-02-21T13:18:49;12.20;99.90
4556;DHT22;2290;48.674;9.018;2024-02-21T13:21:14;12.30;99.90
4556;DHT22;2290;48.674;9.018;2024-02-21T13:23:41;12.30;99.90
4556;DHT22;2290;48.674;9.018;2024-02-21T13:26:09;12.30;99.90
4556;DHT22;2290;48.674;9.018;2024-02-21T13:28:35;12.20;99.90
4556;DHT22;2290;48.674;9.018;2024-02-21T13:31:02;12.20;99.90
4556;DHT22;2290;48.674;9.018;2024-02-21T13:33:28;12.20;99.90
4556;DHT22;2290;48.674;9.018;2024-02-21T13:35:54;12.30;99.90
4556;DHT22;2290;48.674;9.018;2024-02-21T13:38:20;12.20;99.90
4556;DHT22;2290;48.674;9.018;2024-02-21T13:40:45;12.30;99.90
4556;DHT22;2290;48.674;9.018;2024-02-21T13:43:11;12.20;99.90
4556;DHT22;2290;48.674;9.018;2024-02-21T13:45:38;12.30;99.90
4556;DHT22;2290;48.674;9.018;2024-02-21T13:48:04;12.30;99.90
4556;DHT22;2290;48.674;9.018;2024-02-21T13:50:31;12.30;99.90
4556;DHT22;2290;48.674;9.018;2024-02-21T13:52:58;12.30;99.90
4556;DHT22;2290;48.674;9.018;2024-02-21T13:55:24;12.20;99.90
4556;DHT22;2290;48.674;9.018;2024-02-21T13:57:52;12.30;99.90
4556;DHT22;2290;48.674;9.018;2024-02-21T14:00:18;12.30;99.90
4556;DHT22;2290;48.674;9.018;2024-02-21T14:02:45;12.30;99.90
4556;DHT22;2290;48.674;9.018;2024-02-21T14:05:11;12.30;99.90
4556;DHT22;2290;48.674;9.018;2024-02-21T14:07:37;12.30;99.90
4556;DHT22;2290;48.674;9.018;2024-02-21T14:10:03;12.30;99.90
4556;DHT22;2290;48.674;9.018;2024-02-21T14:12:30;12.20;99.80
4556;DHT22;2290;48.674;9.018;2024-02-21T14:14:57;12.10;99.90
4556;DHT22;2290;48.674;9.018;2024-02-21T14:17:23;12.10;99.90
4556;DHT22;2290;48.674;9.018;2024-02-21T14:19:50;12.00;99.90
4556;DHT22;2290;48.674;9.018;2024-02-21T14:22:17;12.00;99.90
4556;DHT22;2290;48.674;9.018;2024-02-21T14:24:44;11.90;99.90
4556;DHT22;2290;48.674;9.018;2024-02-21T14:27:10;12.00;99.90
4556;DHT22;2290;48.674;9.018;2024-02-21T14:29:35;11.90;99.90
4556;DHT22;2290;48.674;9.018;2024-02-21T14:32:02;11.90;99.90
4556;DHT22;2290;48.674;9.018;2024-02-21T14:34:28;11.90;99.90
4556;DHT22;2290;48.674;9.018;2024-02-21T14:36:54;11.90;99.90
4556;DHT22;2290;48.674;9.018;2024-02-21T14:39:19;12.00;99.90
4556;DHT22;2290;48.674;9.018;2024-02-21T14:41:45;12.00;99.90
4556;DHT22;2290;48.674;9.018;2024-02-21T14:44:10;11.90;99.90
4556;DHT22;2290;48.674;9.018;2024-02-21T14:46:37;12.00;99.90
4556;DHT22;2290;48.674;9.018;2024-02-21T14:49:04;11.90;99.90
4556;DHT22;2290;48.674;9.018;2024-02-21T14:51:29;11.90;99.90
4556;DHT22;2290;48.674;9.018;2024-02-21T14:53:57;11.80;99.90
4556;DHT22;2290;48.674;9.018;2024-02-21T14:56:22;11.80;99.90
4556;DHT22;2290;48.674;9.018;2024-02-21T14:58:49;11.80;99.90
4556;DHT22;2290;48.674;9.018;2024-02-21T15:01:15;11.80;99.90
4556;DHT22;2290;48.674;9.018;2024-02-21T15:03:41;11.80;99.90
4556;DHT22;2290;48.674;9.018;2024-02-21T15:06:12;11.80;99.90
4556;DHT22;2290;48.674;9.018;2024-02-21T15:08:38;11.70;99.90
4556;DHT22;2290;48.674;9.018;2024-02-21T15:11:04;11.70;99.90
4556;DHT22;2290;48.674;9.018;2024-02-21T15:13:29;11.70;99.90
4556;DHT22;2290;48.674;9.018;2024-02-21T15:15:59;11.70;99.90
4556;DHT22;2290;48.674;9.018;2024-02-21T15:18:25;11.80;99.90
4556;DHT22;2290;48.674;9.018;2024-02-21T15:20:50;11.80;99.90
4556;DHT22;2290;48.674;9.018;2024-02-21T15:23:17;11.80;99.90
4556;DHT22;2290;48.674;9.018;2024-02-21T15:25:43;11.90;99.90
4556;DHT22;2290;48.674;9.018;2024-02-21T15:28:09;11.90;99.90
4556;DHT22;2290;48.674;9.018;2024-02-21T15:30:35;11.90;99.90
4556;DHT22;2290;48.674;9.018;2024-02-21T15:33:01;11.80;99.90
4556;DHT22;2290;48.674;9.018;2024-02-21T15:35:30;11.90;99.90
4556;DHT22;2290;48.674;9.018;2024-02-21T15:37:57;11.80;99.90
4556;DHT22;2290;48.674;9.018;2024-02-21T15:40:23;11.80;99.90
4556;DHT22;2290;48.674;9.018;2024-02-21T15:42:49;11.70;99.90
4556;DHT22;2290;48.674;9.018;2024-02-21T15:45:15;11.60;99.90
4556;DHT22;2290;48.674;9.018;2024-02-21T15:47:41;11.60;99.90
4556;DHT22;2290;48.674;9.018;2024-02-21T15:50:07;11.60;99.90
4556;DHT22;2290;48.674;9.018;2024-02-21T15:52:33;11.60;99.90
4556;DHT22;2290;48.674;9.018;2024-02-21T15:54:58;11.60;99.90
4556;DHT22;2290;48.674;9.018;2024-02-21T15:57:24;11.60;99.90
4556;DHT22;2290;48.674;9.018;2024-02-21T15:59:51;11.50;99.90
4556;DHT22;2290;48.674;9.018;2024-02-21T16:02:20;11.50;99.90
4556;DHT22;2290;48.674;9.018;2024-02-21T16:04:46;11.50;99.90
4556;DHT22;2290;48.674;9.018;2024-02-21T16:07:13;11.50;99.90
4556;DHT22;2290;48.674;9.018;2024-02-21T16:09:39;11.50;99.90
4556;DHT22;2290;48.674;9.018;2024-02-21T16:12:09;11.40;99.90
4556;DHT22;2290;48.674;9.018;2024-02-21T16:14:35;11.40;99.90